sensor_id;sensor_type;location;lat;lon;timestamp;temperature;humidity
7512;DHT22;9999;48.780;9.146;2022-12-29T00:00:14;7.70;99.90
7512;DHT22;9999;48.780;9.146;2022-12-29T00:02:41;7.70;99.90
7512;DHT22;9999;48.780;9.146;2022-12-29T00:05:09;7.70;99.90
7512;DHT22;9999;48.780;9.146;2022-12-29T00:07:36;7.70;99.90
7512;DHT22;9999;48.780;9.146;2022-12-29T00:10:04;7.60;99.90
7512;DHT22;9999;48.780;9.146;2022-12-29T00:12:31;7.80;99.90
7512;DHT22;9999;48.780;9.146;2022-12-29T00:15:11;8.00;99.90
7512;DHT22;9999;48.780;9.146;2022-12-29T00:17:56;8.00;99.90
7512;DHT22;9999;48.780;9.146;2022-12-29T00:20:24;7.90;99.90
7512;DHT22;9999;48.780;9.146;2022-12-29T00:23:10;7.80;99.90
7512;DHT22;9999;48.780;9.146;2022-12-29T00:25:55;7.90;99.90
7512;DHT22;9999;48.780;9.146;2022-12-29T00:28:40;7.90;99.90
7512;DHT22;9999;48.780;9.146;2022-12-29T00:31:24;8.00;99.90
7512;DHT22;9999;48.780;9.146;2022-12-29T00:34:10;8.00;99.90
7512;DHT22;9999;48.780;9.146;2022-12-29T00:36:56;8.00;99.90
7512;DHT22;9999;48.780;9.146;2022-12-29T00:39:23;8.00;99.90
7512;DHT22;9999;48.780;9.146;2022-12-29T00:42:09;8.00;99.90
7512;DHT22;9999;48.780;9.146;2022-12-29T00:44:58;8.00;99.90
7512;DHT22;9999;48.780;9.146;2022-12-29T00:47:25;8.00;99.90
7512;DHT22;9999;48.780;9.146;2022-12-29T00:49:52;8.00;99.90
7512;DHT22;9999;48.780;9.146;2022-12-29T00:52:19;8.10;99.90
7512;DHT22;9999;48.780;9.146;2022-12-29T00:54:46;8.10;99.90
7512;DHT22;9999;48.780;9.146;2022-12-29T00:57:13;8.10;99.90
7512;DHT22;9999;48.780;9.146;2022-12-29T00:59:41;8.00;99.90
7512;DHT22;9999;48.780;9.146;2022-12-29T01:02:08;8.00;99.90
7512;DHT22;9999;48.780;9.146;2022-12-29T01:04:36;8.00;99.90
7512;DHT22;9999;48.780;9.146;2022-12-29T01:07:03;8.00;99.90
7512;DHT22;9999;48.780;9.146;2022-12-29T01:09:31;8.10;99.90
7512;DHT22;9999;48.780;9.146;2022-12-29T01:12:30;8.20;99.90
7512;DHT22;9999;48.780;9.146;2022-12-29T01:15:13;8.10;99.90
7512;DHT22;9999;48.780;9.146;2022-12-29T01:17:40;8.10;99.90
7512;DHT22;9999;48.780;9.146;2022-12-29T01:20:08;8.10;99.90
7512;DHT22;9999;48.780;9.146;2022-12-29T01:22:36;8.10;99.90
7512;DHT22;9999;48.780;9.146;2022-12-29T01:25:05;8.10;99.90
7512;DHT22;9999;48.780;9.146;2022-12-29T01:27:32;8.10;99.90
7512;DHT22;9999;48.780;9.146;2022-12-29T01:29:59;8.20;99.90
7512;DHT22;9999;48.780;9.146;2022-12-29T01:32:25;8.20;99.90
7512;DHT22;9999;48.780;9.146;2022-12-29T01:34:52;8.20;99.90
7512;DHT22;9999;48.780;9.146;2022-12-29T01:37:19;8.10;99.90
7512;DHT22;9999;48.780;9.146;2022-12-29T01:39:46;8.10;99.90
7512;DHT22;9999;48.780;9.146;2022-12-29T01:42:17;8.10;99.90
7512;DHT22;9999;48.780;9.146;2022-12-29T01:44:50;8.10;99.90
7512;DHT22;9999;48.780;9.146;2022-12-29T01:47:23;8.00;99.90
7512;DHT22;9999;48.780;9.146;2022-12-29T01:49:53;8.10;99.90
7512;DHT22;9999;48.780;9.146;2022-12-29T01:52:21;8.00;99.90
7512;DHT22;9999;48.780;9.146;2022-12-29T01:54:52;8.10;99.90
7512;DHT22;9999;48.780;9.146;2022-12-29T01:57:25;8.00;99.90
7512;DHT22;9999;48.780;9.146;2022-12-29T01:59:58;8.00;99.90
7512;DHT22;9999;48.780;9.146;2022-12-29T02:02:27;8.00;99.90
7512;DHT22;9999;48.780;9.146;2022-12-29T02:04:55;8.00;99.90
7512;DHT22;9999;48.780;9.146;2022-12-29T02:07:25;8.00;99.90
7512;DHT22;9999;48.780;9.146;2022-12-29T02:09:54;8.00;99.90
7512;DHT22;9999;48.780;9.146;2022-12-29T02:12:23;8.00;99.90
7512;DHT22;9999;48.780;9.146;2022-12-29T02:14:54;8.00;99.90
7512;DHT22;9999;48.780;9.146;2022-12-29T02:17:29;8.00;99.90
7512;DHT22;9999;48.780;9.146;2022-12-29T02:23:23;7.90;99.90
7512;DHT22;9999;48.780;9.146;2022-12-29T02:26:13;7.90;99.90
7512;DHT22;9999;48.780;9.146;2022-12-29T02:31:58;7.80;99.90
7512;DHT22;9999;48.780;9.146;2022-12-29T02:34:33;7.80;99.90
7512;DHT22;9999;48.780;9.146;2022-12-29T02:37:06;7.80;99.90
7512;DHT22;9999;48.780;9.146;2022-12-29T02:39:41;7.70;99.90
7512;DHT22;9999;48.780;9.146;2022-12-29T02:42:21;7.80;99.90
7512;DHT22;9999;48.780;9.146;2022-12-29T02:44:54;7.80;99.90
7512;DHT22;9999;48.780;9.146;2022-12-29T02:47:28;7.80;99.90
7512;DHT22;9999;48.780;9.146;2022-12-29T02:49:59;7.80;99.90
7512;DHT22;9999;48.780;9.146;2022-12-29T02:52:31;7.70;99.90
7512;DHT22;9999;48.780;9.146;2022-12-29T02:55:00;7.80;99.90
7512;DHT22;9999;48.780;9.146;2022-12-29T02:57:31;7.70;99.90
7512;DHT22;9999;48.780;9.146;2022-12-29T03:00:03;7.70;99.90
7512;DHT22;9999;48.780;9.146;2022-12-29T03:05:26;7.80;99.90
7512;DHT22;9999;48.780;9.146;2022-12-29T03:08:03;7.80;99.90
7512;DHT22;9999;48.780;9.146;2022-12-29T03:10:37;7.80;99.90
7512;DHT22;9999;48.780;9.146;2022-12-29T03:13:14;7.80;99.90
7512;DHT22;9999;48.780;9.146;2022-12-29T03:16:04;7.80;99.90
7512;DHT22;9999;48.780;9.146;2022-12-29T03:18:40;7.90;99.90
7512;DHT22;9999;48.780;9.146;2022-12-29T03:21:12;7.90;99.90
7512;DHT22;9999;48.780;9.146;2022-12-29T03:23:44;8.00;99.90
7512;DHT22;9999;48.780;9.146;2022-12-29T03:26:14;8.30;99.90
7512;DHT22;9999;48.780;9.146;2022-12-29T03:28:46;8.50;99.90
7512;DHT22;9999;48.780;9.146;2022-12-29T03:31:19;8.70;99.90
7512;DHT22;9999;48.780;9.146;2022-12-29T03:33:50;8.70;99.90
7512;DHT22;9999;48.780;9.146;2022-12-29T03:36:26;8.60;99.90
7512;DHT22;9999;48.780;9.146;2022-12-29T03:38:59;8.70;99.90
7512;DHT22;9999;48.780;9.146;2022-12-29T03:41:30;8.90;99.90
7512;DHT22;9999;48.780;9.146;2022-12-29T03:44:00;9.00;99.90
7512;DHT22;9999;48.780;9.146;2022-12-29T03:46:27;9.30;99.90
7512;DHT22;9999;48.780;9.146;2022-12-29T03:48:55;9.40;99.90
7512;DHT22;9999;48.780;9.146;2022-12-29T03:51:22;9.40;99.90
7512;DHT22;9999;48.780;9.146;2022-12-29T03:53:49;9.30;99.90
7512;DHT22;9999;48.780;9.146;2022-12-29T03:56:16;9.40;99.90
7512;DHT22;9999;48.780;9.146;2022-12-29T03:58:43;9.50;99.90
7512;DHT22;9999;48.780;9.146;2022-12-29T04:01:27;9.60;99.90
7512;DHT22;9999;48.780;9.146;2022-12-29T04:03:55;9.50;99.90
7512;DHT22;9999;48.780;9.146;2022-12-29T04:06:22;9.50;99.90
7512;DHT22;9999;48.780;9.146;2022-12-29T04:08:58;9.50;99.90
7512;DHT22;9999;48.780;9.146;2022-12-29T04:11:25;9.50;99.90
7512;DHT22;9999;48.780;9.146;2022-12-29T04:13:52;9.50;99.90
7512;DHT22;9999;48.780;9.146;2022-12-29T04:16:23;9.50;99.90
7512;DHT22;9999;48.780;9.146;2022-12-29T04:18:50;9.40;99.90
7512;DHT22;9999;48.780;9.146;2022-12-29T04:21:18;9.40;99.90
7512;DHT22;9999;48.780;9.146;2022-12-29T04:23:45;9.50;99.90
7512;DHT22;9999;48.780;9.146;2022-12-29T04:26:13;9.50;99.90
7512;DHT22;9999;48.780;9.146;2022-12-29T04:28:59;9.60;99.90
7512;DHT22;9999;48.780;9.146;2022-12-29T04:31:32;9.50;99.90
7512;DHT22;9999;48.780;9.146;2022-12-29T04:33:59;9.60;99.90
7512;DHT22;9999;48.780;9.146;2022-12-29T04:36:27;9.50;99.90
7512;DHT22;9999;48.780;9.146;2022-12-29T04:38:54;9.60;99.90
7512;DHT22;9999;48.780;9.146;2022-12-29T04:41:21;9.80;99.90
7512;DHT22;9999;48.780;9.146;2022-12-29T04:43:48;9.90;99.90
7512;DHT22;9999;48.780;9.146;2022-12-29T04:46:32;9.80;99.90
7512;DHT22;9999;48.780;9.146;2022-12-29T04:49:03;9.80;99.90
7512;DHT22;9999;48.780;9.146;2022-12-29T04:52:00;9.80;99.90
7512;DHT22;9999;48.780;9.146;2022-12-29T04:54:28;9.90;99.90
7512;DHT22;9999;48.780;9.146;2022-12-29T04:57:08;10.00;99.90
7512;DHT22;9999;48.780;9.146;2022-12-29T04:59:37;10.00;99.90
7512;DHT22;9999;48.780;9.146;2022-12-29T05:02:04;10.10;99.90
7512;DHT22;9999;48.780;9.146;2022-12-29T05:04:33;10.00;99.90
7512;DHT22;9999;48.780;9.146;2022-12-29T05:07:01;10.00;99.90
7512;DHT22;9999;48.780;9.146;2022-12-29T05:09:28;10.10;99.90
7512;DHT22;9999;48.780;9.146;2022-12-29T05:11:56;10.10;99.90
7512;DHT22;9999;48.780;9.146;2022-12-29T05:14:23;10.10;99.90
7512;DHT22;9999;48.780;9.146;2022-12-29T05:16:50;10.10;99.90
7512;DHT22;9999;48.780;9.146;2022-12-29T05:19:17;10.00;99.90
7512;DHT22;9999;48.780;9.146;2022-12-29T05:21:43;10.00;99.90
7512;DHT22;9999;48.780;9.146;2022-12-29T05:24:12;9.90;99.90
7512;DHT22;9999;48.780;9.146;2022-12-29T05:26:39;9.90;99.90
7512;DHT22;9999;48.780;9.146;2022-12-29T05:29:30;9.90;99.90
7512;DHT22;9999;48.780;9.146;2022-12-29T05:31:57;9.90;99.90
7512;DHT22;9999;48.780;9.146;2022-12-29T05:34:24;10.00;99.90
7512;DHT22;9999;48.780;9.146;2022-12-29T05:36:51;9.90;99.90
7512;DHT22;9999;48.780;9.146;2022-12-29T05:39:19;9.80;99.90
7512;DHT22;9999;48.780;9.146;2022-12-29T05:41:52;9.80;99.90
7512;DHT22;9999;48.780;9.146;2022-12-29T05:44:39;9.80;99.90
7512;DHT22;9999;48.780;9.146;2022-12-29T05:47:25;9.80;99.90
7512;DHT22;9999;48.780;9.146;2022-12-29T05:50:07;9.80;99.90
7512;DHT22;9999;48.780;9.146;2022-12-29T05:52:53;9.90;99.90
7512;DHT22;9999;48.780;9.146;2022-12-29T05:55:21;9.80;99.90
7512;DHT22;9999;48.780;9.146;2022-12-29T05:57:50;9.80;99.90
7512;DHT22;9999;48.780;9.146;2022-12-29T06:00:17;9.90;99.90
7512;DHT22;9999;48.780;9.146;2022-12-29T06:02:45;9.90;99.90
7512;DHT22;9999;48.780;9.146;2022-12-29T06:05:14;9.90;99.90
7512;DHT22;9999;48.780;9.146;2022-12-29T06:07:41;10.00;99.90
7512;DHT22;9999;48.780;9.146;2022-12-29T06:10:08;10.10;99.90
7512;DHT22;9999;48.780;9.146;2022-12-29T06:12:44;10.10;99.90
7512;DHT22;9999;48.780;9.146;2022-12-29T06:15:11;10.00;99.90
7512;DHT22;9999;48.780;9.146;2022-12-29T06:17:40;10.00;99.90
7512;DHT22;9999;48.780;9.146;2022-12-29T06:20:08;10.00;99.90
7512;DHT22;9999;48.780;9.146;2022-12-29T06:22:35;9.90;99.90
7512;DHT22;9999;48.780;9.146;2022-12-29T06:25:02;9.80;99.90
7512;DHT22;9999;48.780;9.146;2022-12-29T06:27:29;9.80;99.90
7512;DHT22;9999;48.780;9.146;2022-12-29T06:29:57;10.00;99.90
7512;DHT22;9999;48.780;9.146;2022-12-29T06:32:24;10.10;99.90
7512;DHT22;9999;48.780;9.146;2022-12-29T06:34:53;10.00;99.90
7512;DHT22;9999;48.780;9.146;2022-12-29T06:37:20;10.00;99.90
7512;DHT22;9999;48.780;9.146;2022-12-29T06:39:46;10.00;99.90
7512;DHT22;9999;48.780;9.146;2022-12-29T06:42:14;10.00;99.90
7512;DHT22;9999;48.780;9.146;2022-12-29T06:44:47;10.10;99.90
7512;DHT22;9999;48.780;9.146;2022-12-29T06:47:15;10.10;99.90
7512;DHT22;9999;48.780;9.146;2022-12-29T06:49:42;10.20;99.90
7512;DHT22;9999;48.780;9.146;2022-12-29T06:52:08;10.20;99.90
7512;DHT22;9999;48.780;9.146;2022-12-29T06:54:35;10.10;99.90
7512;DHT22;9999;48.780;9.146;2022-12-29T06:57:02;10.10;99.90
7512;DHT22;9999;48.780;9.146;2022-12-29T06:59:29;10.00;99.90
7512;DHT22;9999;48.780;9.146;2022-12-29T07:01:56;9.80;99.90
7512;DHT22;9999;48.780;9.146;2022-12-29T07:04:24;9.80;99.90
7512;DHT22;9999;48.780;9.146;2022-12-29T07:06:51;9.70;99.90
7512;DHT22;9999;48.780;9.146;2022-12-29T07:09:18;9.70;99.90
7512;DHT22;9999;48.780;9.146;2022-12-29T07:11:44;9.60;99.90
7512;DHT22;9999;48.780;9.146;2022-12-29T07:14:11;9.60;99.90
7512;DHT22;9999;48.780;9.146;2022-12-29T07:16:38;9.50;99.90
7512;DHT22;9999;48.780;9.146;2022-12-29T07:19:05;9.50;99.90
7512;DHT22;9999;48.780;9.146;2022-12-29T07:21:33;9.50;99.90
7512;DHT22;9999;48.780;9.146;2022-12-29T07:24:00;9.40;99.90
7512;DHT22;9999;48.780;9.146;2022-12-29T07:26:27;9.30;99.90
7512;DHT22;9999;48.780;9.146;2022-12-29T07:28:53;9.20;99.90
7512;DHT22;9999;48.780;9.146;2022-12-29T07:31:23;9.10;99.90
7512;DHT22;9999;48.780;9.146;2022-12-29T07:33:50;9.10;99.90
7512;DHT22;9999;48.780;9.146;2022-12-29T07:36:17;9.10;99.90
7512;DHT22;9999;48.780;9.146;2022-12-29T07:38:45;9.10;99.90
7512;DHT22;9999;48.780;9.146;2022-12-29T07:41:11;9.20;99.90
7512;DHT22;9999;48.780;9.146;2022-12-29T07:43:38;9.20;99.90
7512;DHT22;9999;48.780;9.146;2022-12-29T07:46:22;9.10;99.90
7512;DHT22;9999;48.780;9.146;2022-12-29T07:48:48;9.10;99.90
7512;DHT22;9999;48.780;9.146;2022-12-29T07:51:15;9.00;99.90
7512;DHT22;9999;48.780;9.146;2022-12-29T07:53:42;9.00;99.90
7512;DHT22;9999;48.780;9.146;2022-12-29T07:56:10;9.10;99.90
7512;DHT22;9999;48.780;9.146;2022-12-29T07:58:37;9.10;99.90
7512;DHT22;9999;48.780;9.146;2022-12-29T08:01:04;9.20;99.90
7512;DHT22;9999;48.780;9.146;2022-12-29T08:03:30;9.30;99.90
7512;DHT22;9999;48.780;9.146;2022-12-29T08:05:57;9.30;99.90
7512;DHT22;9999;48.780;9.146;2022-12-29T08:08:24;9.30;99.90
7512;DHT22;9999;48.780;9.146;2022-12-29T08:10:51;9.20;99.90
7512;DHT22;9999;48.780;9.146;2022-12-29T08:13:19;9.30;99.90
7512;DHT22;9999;48.780;9.146;2022-12-29T08:15:46;9.20;99.90
7512;DHT22;9999;48.780;9.146;2022-12-29T08:18:12;9.20;99.90
7512;DHT22;9999;48.780;9.146;2022-12-29T08:20:39;9.20;99.90
7512;DHT22;9999;48.780;9.146;2022-12-29T08:23:06;9.30;99.90
7512;DHT22;9999;48.780;9.146;2022-12-29T08:25:33;9.40;99.90
7512;DHT22;9999;48.780;9.146;2022-12-29T08:27:59;9.30;99.90
7512;DHT22;9999;48.780;9.146;2022-12-29T08:30:27;9.30;99.90
7512;DHT22;9999;48.780;9.146;2022-12-29T08:32:54;9.20;99.90
7512;DHT22;9999;48.780;9.146;2022-12-29T08:35:21;9.20;99.90
7512;DHT22;9999;48.780;9.146;2022-12-29T08:37:48;9.40;99.90
7512;DHT22;9999;48.780;9.146;2022-12-29T08:40:14;9.50;99.90
7512;DHT22;9999;48.780;9.146;2022-12-29T08:42:41;9.50;99.90
7512;DHT22;9999;48.780;9.146;2022-12-29T08:45:08;9.60;99.90
7512;DHT22;9999;48.780;9.146;2022-12-29T08:47:37;9.50;99.90
7512;DHT22;9999;48.780;9.146;2022-12-29T08:50:04;9.50;99.90
7512;DHT22;9999;48.780;9.146;2022-12-29T08:52:31;9.60;99.90
7512;DHT22;9999;48.780;9.146;2022-12-29T08:54:58;9.70;99.90
7512;DHT22;9999;48.780;9.146;2022-12-29T08:57:24;9.80;99.90
7512;DHT22;9999;48.780;9.146;2022-12-29T09:00:06;9.80;99.90
7512;DHT22;9999;48.780;9.146;2022-12-29T09:02:33;9.70;99.90
7512;DHT22;9999;48.780;9.146;2022-12-29T09:05:02;9.80;99.90
7512;DHT22;9999;48.780;9.146;2022-12-29T09:07:29;9.90;99.90
7512;DHT22;9999;48.780;9.146;2022-12-29T09:09:56;10.00;99.90
7512;DHT22;9999;48.780;9.146;2022-12-29T09:12:23;10.00;99.90
7512;DHT22;9999;48.780;9.146;2022-12-29T09:14:50;10.00;99.90
7512;DHT22;9999;48.780;9.146;2022-12-29T09:17:16;10.10;99.90
7512;DHT22;9999;48.780;9.146;2022-12-29T09:20:02;10.10;99.90
7512;DHT22;9999;48.780;9.146;2022-12-29T09:22:29;10.20;99.90
7512;DHT22;9999;48.780;9.146;2022-12-29T09:24:56;10.20;99.90
7512;DHT22;9999;48.780;9.146;2022-12-29T09:27:23;10.20;99.90
7512;DHT22;9999;48.780;9.146;2022-12-29T09:29:49;10.20;99.90
7512;DHT22;9999;48.780;9.146;2022-12-29T09:32:16;10.30;99.90
7512;DHT22;9999;48.780;9.146;2022-12-29T09:34:43;10.30;99.90
7512;DHT22;9999;48.780;9.146;2022-12-29T09:37:11;10.40;99.90
7512;DHT22;9999;48.780;9.146;2022-12-29T09:39:38;10.40;99.90
7512;DHT22;9999;48.780;9.146;2022-12-29T09:42:08;10.50;99.90
7512;DHT22;9999;48.780;9.146;2022-12-29T09:44:50;10.50;99.90
7512;DHT22;9999;48.780;9.146;2022-12-29T09:47:19;10.50;99.90
7512;DHT22;9999;48.780;9.146;2022-12-29T09:49:49;10.50;99.90
7512;DHT22;9999;48.780;9.146;2022-12-29T09:52:21;10.50;99.90
7512;DHT22;9999;48.780;9.146;2022-12-29T09:54:53;10.60;99.90
7512;DHT22;9999;48.780;9.146;2022-12-29T09:57:25;10.80;99.90
7512;DHT22;9999;48.780;9.146;2022-12-29T09:59:55;11.00;99.90
7512;DHT22;9999;48.780;9.146;2022-12-29T10:02:31;11.10;99.90
7512;DHT22;9999;48.780;9.146;2022-12-29T10:04:58;11.20;99.90
7512;DHT22;9999;48.780;9.146;2022-12-29T10:07:36;11.40;99.90
7512;DHT22;9999;48.780;9.146;2022-12-29T10:10:19;11.40;99.90
7512;DHT22;9999;48.780;9.146;2022-12-29T10:13:10;11.40;99.90
7512;DHT22;9999;48.780;9.146;2022-12-29T10:15:53;11.30;99.90
7512;DHT22;9999;48.780;9.146;2022-12-29T10:18:44;11.40;99.90
7512;DHT22;9999;48.780;9.146;2022-12-29T10:21:23;11.50;99.90
7512;DHT22;9999;48.780;9.146;2022-12-29T10:23:55;11.50;99.90
7512;DHT22;9999;48.780;9.146;2022-12-29T10:26:24;11.50;99.90
7512;DHT22;9999;48.780;9.146;2022-12-29T10:28:56;11.60;99.90
7512;DHT22;9999;48.780;9.146;2022-12-29T10:31:25;11.60;99.90
7512;DHT22;9999;48.780;9.146;2022-12-29T10:33:57;11.70;99.90
7512;DHT22;9999;48.780;9.146;2022-12-29T10:36:30;11.70;99.90
7512;DHT22;9999;48.780;9.146;2022-12-29T10:39:06;11.70;99.90
7512;DHT22;9999;48.780;9.146;2022-12-29T10:41:43;11.70;99.90
7512;DHT22;9999;48.780;9.146;2022-12-29T10:44:15;11.80;99.90
7512;DHT22;9999;48.780;9.146;2022-12-29T10:46:44;11.80;99.90
7512;DHT22;9999;48.780;9.146;2022-12-29T10:49:15;11.80;99.90
7512;DHT22;9999;48.780;9.146;2022-12-29T10:51:44;11.80;99.90
7512;DHT22;9999;48.780;9.146;2022-12-29T10:54:17;11.80;99.90
7512;DHT22;9999;48.780;9.146;2022-12-29T10:56:48;11.90;99.90
7512;DHT22;9999;48.780;9.146;2022-12-29T10:59:20;12.20;99.90
7512;DHT22;9999;48.780;9.146;2022-12-29T11:01:55;12.40;99.90
7512;DHT22;9999;48.780;9.146;2022-12-29T11:04:41;12.60;99.90
7512;DHT22;9999;48.780;9.146;2022-12-29T11:07:10;12.70;99.90
7512;DHT22;9999;48.780;9.146;2022-12-29T11:09:40;12.60;99.90
7512;DHT22;9999;48.780;9.146;2022-12-29T11:12:26;12.50;99.90
7512;DHT22;9999;48.780;9.146;2022-12-29T11:15:12;12.40;99.90
7512;DHT22;9999;48.780;9.146;2022-12-29T11:17:46;12.30;99.90
7512;DHT22;9999;48.780;9.146;2022-12-29T11:20:28;12.20;99.90
7512;DHT22;9999;48.780;9.146;2022-12-29T11:22:55;12.20;99.90
7512;DHT22;9999;48.780;9.146;2022-12-29T11:25:23;12.20;99.90
7512;DHT22;9999;48.780;9.146;2022-12-29T11:27:58;12.20;99.90
7512;DHT22;9999;48.780;9.146;2022-12-29T11:30:28;12.20;99.90
7512;DHT22;9999;48.780;9.146;2022-12-29T11:32:56;12.10;99.90
7512;DHT22;9999;48.780;9.146;2022-12-29T11:35:31;12.00;99.90
7512;DHT22;9999;48.780;9.146;2022-12-29T11:37:59;12.00;99.90
7512;DHT22;9999;48.780;9.146;2022-12-29T11:40:28;12.00;99.90
7512;DHT22;9999;48.780;9.146;2022-12-29T11:42:56;11.90;99.90
7512;DHT22;9999;48.780;9.146;2022-12-29T11:45:27;11.90;99.90
7512;DHT22;9999;48.780;9.146;2022-12-29T11:47:57;11.80;99.90
7512;DHT22;9999;48.780;9.146;2022-12-29T11:50:27;11.80;99.90
7512;DHT22;9999;48.780;9.146;2022-12-29T11:52:59;11.70;99.90
7512;DHT22;9999;48.780;9.146;2022-12-29T11:55:29;11.70;99.90
7512;DHT22;9999;48.780;9.146;2022-12-29T11:57:58;11.70;99.90
7512;DHT22;9999;48.780;9.146;2022-12-29T12:00:28;11.60;99.90
7512;DHT22;9999;48.780;9.146;2022-12-29T12:02:58;11.50;99.90
7512;DHT22;9999;48.780;9.146;2022-12-29T12:05:33;11.40;99.90
7512;DHT22;9999;48.780;9.146;2022-12-29T12:08:08;11.30;99.90
7512;DHT22;9999;48.780;9.146;2022-12-29T12:10:42;11.30;99.90
7512;DHT22;9999;48.780;9.146;2022-12-29T12:13:18;11.20;99.90
7512;DHT22;9999;48.780;9.146;2022-12-29T12:15:51;11.10;99.90
7512;DHT22;9999;48.780;9.146;2022-12-29T12:18:30;11.10;99.90
7512;DHT22;9999;48.780;9.146;2022-12-29T12:21:04;11.10;99.90
7512;DHT22;9999;48.780;9.146;2022-12-29T12:23:37;11.10;99.90
7512;DHT22;9999;48.780;9.146;2022-12-29T12:26:12;11.20;99.90
7512;DHT22;9999;48.780;9.146;2022-12-29T12:28:47;11.20;99.90
7512;DHT22;9999;48.780;9.146;2022-12-29T12:31:24;11.20;99.90
7512;DHT22;9999;48.780;9.146;2022-12-29T12:33:57;11.20;99.90
7512;DHT22;9999;48.780;9.146;2022-12-29T12:39:21;11.30;99.90
7512;DHT22;9999;48.780;9.146;2022-12-29T12:41:58;11.40;99.90
7512;DHT22;9999;48.780;9.146;2022-12-29T12:44:31;11.40;99.90
7512;DHT22;9999;48.780;9.146;2022-12-29T12:47:16;11.30;99.90
7512;DHT22;9999;48.780;9.146;2022-12-29T12:50:09;11.20;99.90
7512;DHT22;9999;48.780;9.146;2022-12-29T12:52:48;11.20;99.90
7512;DHT22;9999;48.780;9.146;2022-12-29T12:55:38;11.20;99.90
7512;DHT22;9999;48.780;9.146;2022-12-29T12:58:18;11.30;99.90
7512;DHT22;9999;48.780;9.146;2022-12-29T13:00:59;11.30;99.90
7512;DHT22;9999;48.780;9.146;2022-12-29T13:03:32;11.40;99.90
7512;DHT22;9999;48.780;9.146;2022-12-29T13:06:12;11.50;99.90
7512;DHT22;9999;48.780;9.146;2022-12-29T13:09:00;11.60;99.90
7512;DHT22;9999;48.780;9.146;2022-12-29T13:11:35;11.70;99.90
7512;DHT22;9999;48.780;9.146;2022-12-29T13:14:19;11.80;99.90
7512;DHT22;9999;48.780;9.146;2022-12-29T13:16:51;11.90;99.90
7512;DHT22;9999;48.780;9.146;2022-12-29T13:19:25;11.80;99.90
7512;DHT22;9999;48.780;9.146;2022-12-29T13:22:02;11.90;99.90
7512;DHT22;9999;48.780;9.146;2022-12-29T13:24:35;11.90;99.90
7512;DHT22;9999;48.780;9.146;2022-12-29T13:27:06;11.80;99.90
7512;DHT22;9999;48.780;9.146;2022-12-29T13:29:46;11.80;99.90
7512;DHT22;9999;48.780;9.146;2022-12-29T13:32:24;11.70;99.90
7512;DHT22;9999;48.780;9.146;2022-12-29T13:35:00;11.70;99.90
7512;DHT22;9999;48.780;9.146;2022-12-29T13:37:32;11.60;99.90
7512;DHT22;9999;48.780;9.146;2022-12-29T13:40:03;11.50;99.90
7512;DHT22;9999;48.780;9.146;2022-12-29T13:42:32;11.50;99.90
7512;DHT22;9999;48.780;9.146;2022-12-29T13:45:02;11.50;99.90
7512;DHT22;9999;48.780;9.146;2022-12-29T13:47:33;11.40;99.90
7512;DHT22;9999;48.780;9.146;2022-12-29T13:50:05;11.40;99.90
7512;DHT22;9999;48.780;9.146;2022-12-29T13:52:37;11.40;99.90
7512;DHT22;9999;48.780;9.146;2022-12-29T13:55:19;11.40;99.90
7512;DHT22;9999;48.780;9.146;2022-12-29T13:57:51;11.40;99.90
7512;DHT22;9999;48.780;9.146;2022-12-29T14:00:23;11.30;99.90
7512;DHT22;9999;48.780;9.146;2022-12-29T14:03:19;11.30;99.90
7512;DHT22;9999;48.780;9.146;2022-12-29T14:06:05;11.30;99.90
7512;DHT22;9999;48.780;9.146;2022-12-29T14:08:37;11.40;99.90
7512;DHT22;9999;48.780;9.146;2022-12-29T14:11:08;11.40;99.90
7512;DHT22;9999;48.780;9.146;2022-12-29T14:13:38;11.40;99.90
7512;DHT22;9999;48.780;9.146;2022-12-29T14:16:10;11.30;99.90
7512;DHT22;9999;48.780;9.146;2022-12-29T14:18:47;11.40;99.90
7512;DHT22;9999;48.780;9.146;2022-12-29T14:21:19;11.30;99.90
7512;DHT22;9999;48.780;9.146;2022-12-29T14:23:48;11.40;99.90
7512;DHT22;9999;48.780;9.146;2022-12-29T14:26:17;11.30;99.90
7512;DHT22;9999;48.780;9.146;2022-12-29T14:28:45;11.30;99.90
7512;DHT22;9999;48.780;9.146;2022-12-29T14:31:36;11.30;99.90
7512;DHT22;9999;48.780;9.146;2022-12-29T14:34:29;11.20;99.90
7512;DHT22;9999;48.780;9.146;2022-12-29T14:36:58;11.20;99.90
7512;DHT22;9999;48.780;9.146;2022-12-29T14:39:35;11.20;99.90
7512;DHT22;9999;48.780;9.146;2022-12-29T14:42:05;11.20;99.90
7512;DHT22;9999;48.780;9.146;2022-12-29T14:44:33;11.20;99.90
7512;DHT22;9999;48.780;9.146;2022-12-29T14:47:05;11.20;99.90
7512;DHT22;9999;48.780;9.146;2022-12-29T14:49:40;11.00;99.90
7512;DHT22;9999;48.780;9.146;2022-12-29T14:52:15;10.90;99.90
7512;DHT22;9999;48.780;9.146;2022-12-29T14:54:49;10.90;99.90
7512;DHT22;9999;48.780;9.146;2022-12-29T14:57:26;11.10;99.90
7512;DHT22;9999;48.780;9.146;2022-12-29T14:59:56;11.10;99.90
7512;DHT22;9999;48.780;9.146;2022-12-29T15:02:32;11.10;99.90
7512;DHT22;9999;48.780;9.146;2022-12-29T15:05:02;11.00;99.90
7512;DHT22;9999;48.780;9.146;2022-12-29T15:07:29;11.00;99.90
7512;DHT22;9999;48.780;9.146;2022-12-29T15:09:59;10.90;99.90
7512;DHT22;9999;48.780;9.146;2022-12-29T15:12:36;10.90;99.90
7512;DHT22;9999;48.780;9.146;2022-12-29T15:15:18;10.90;99.90
7512;DHT22;9999;48.780;9.146;2022-12-29T15:17:47;10.80;99.90
7512;DHT22;9999;48.780;9.146;2022-12-29T15:20:20;10.70;99.90
7512;DHT22;9999;48.780;9.146;2022-12-29T15:22:50;10.70;99.90
7512;DHT22;9999;48.780;9.146;2022-12-29T15:25:18;10.70;99.90
7512;DHT22;9999;48.780;9.146;2022-12-29T15:27:49;10.70;99.90
7512;DHT22;9999;48.780;9.146;2022-12-29T15:30:16;10.60;99.90
7512;DHT22;9999;48.780;9.146;2022-12-29T15:32:44;10.60;99.90
7512;DHT22;9999;48.780;9.146;2022-12-29T15:35:28;10.70;99.90
7512;DHT22;9999;48.780;9.146;2022-12-29T15:37:55;10.70;99.90
7512;DHT22;9999;48.780;9.146;2022-12-29T15:40:24;10.60;99.90
7512;DHT22;9999;48.780;9.146;2022-12-29T15:43:12;10.60;99.90
7512;DHT22;9999;48.780;9.146;2022-12-29T15:45:41;10.60;99.90
7512;DHT22;9999;48.780;9.146;2022-12-29T15:48:15;10.60;99.90
7512;DHT22;9999;48.780;9.146;2022-12-29T15:50:45;10.60;99.90
7512;DHT22;9999;48.780;9.146;2022-12-29T15:53:18;10.70;99.90
7512;DHT22;9999;48.780;9.146;2022-12-29T15:55:46;10.70;99.90
7512;DHT22;9999;48.780;9.146;2022-12-29T15:58:20;10.70;99.90
7512;DHT22;9999;48.780;9.146;2022-12-29T16:00:49;10.50;99.90
7512;DHT22;9999;48.780;9.146;2022-12-29T16:03:18;10.40;99.90
7512;DHT22;9999;48.780;9.146;2022-12-29T16:05:52;10.20;99.90
7512;DHT22;9999;48.780;9.146;2022-12-29T16:08:29;10.10;99.90
7512;DHT22;9999;48.780;9.146;2022-12-29T16:10:58;10.00;99.90
7512;DHT22;9999;48.780;9.146;2022-12-29T16:13:28;9.80;99.90
7512;DHT22;9999;48.780;9.146;2022-12-29T16:15:59;9.80;99.90
7512;DHT22;9999;48.780;9.146;2022-12-29T16:18:32;9.70;99.90
7512;DHT22;9999;48.780;9.146;2022-12-29T16:21:04;9.70;99.90
7512;DHT22;9999;48.780;9.146;2022-12-29T16:23:32;9.70;99.90
7512;DHT22;9999;48.780;9.146;2022-12-29T16:25:59;9.70;99.90
7512;DHT22;9999;48.780;9.146;2022-12-29T16:28:31;9.50;99.90
7512;DHT22;9999;48.780;9.146;2022-12-29T16:31:03;9.50;99.90
7512;DHT22;9999;48.780;9.146;2022-12-29T16:33:38;9.50;99.90
7512;DHT22;9999;48.780;9.146;2022-12-29T16:36:28;9.40;99.90
7512;DHT22;9999;48.780;9.146;2022-12-29T16:39:15;9.40;99.90
7512;DHT22;9999;48.780;9.146;2022-12-29T16:41:47;9.50;99.90
7512;DHT22;9999;48.780;9.146;2022-12-29T16:44:19;9.50;99.90
7512;DHT22;9999;48.780;9.146;2022-12-29T16:47:18;9.40;99.90
7512;DHT22;9999;48.780;9.146;2022-12-29T16:49:50;9.40;99.90
7512;DHT22;9999;48.780;9.146;2022-12-29T16:52:22;9.40;99.90